C2018 KSDM-KNYL
Flight info
| Callsign | C2018 |
|---|---|
| Flight time | 1h 24m |
| Altitude | 11000 |
| Route | KSDM-MZB-SIERA-JONDA-IPL-CUVAM-NYL02- KNYL |
| Aircraft | C130/M-SDE2E3FGRY/C |
Departure
| Time | 2026-04-29 16:22 |
|---|---|
| Airport | Brown Field Municipal Airport (KSDM) |
Arrival
| Time | 2026-04-29 17:46 |
|---|---|
| Airport | Yuma International Airport / Marine Corps Air Station Yuma (KNYL) |
| Time | Latitude | Longitude | Altitude | Speed | Heading |
|---|---|---|---|---|---|
| 2026-04-29 16:11 | 32.57019 | -116.98551 | 543 ft | 0 kts | 277° |
| 2026-04-29 16:13 | 32.57019 | -116.98552 | 543 ft | 0 kts | 277° |
| 2026-04-29 16:14 | 32.57020 | -116.98554 | 543 ft | 1 kts | 279° |
| 2026-04-29 16:14 | 32.57028 | -116.98558 | 543 ft | 2 kts | 360° |
| 2026-04-29 16:14 | 32.57053 | -116.98526 | 543 ft | 11 kts | 75° |
| 2026-04-29 16:15 | 32.57076 | -116.98392 | 543 ft | 18 kts | 101° |
| 2026-04-29 16:15 | 32.57064 | -116.98227 | 543 ft | 23 kts | 95° |
| 2026-04-29 16:15 | 32.57048 | -116.98021 | 543 ft | 27 kts | 95° |
| 2026-04-29 16:15 | 32.57031 | -116.97795 | 543 ft | 28 kts | 95° |
| 2026-04-29 16:16 | 32.57014 | -116.97559 | 543 ft | 29 kts | 95° |
| 2026-04-29 16:16 | 32.56989 | -116.97320 | 543 ft | 29 kts | 98° |
| 2026-04-29 16:16 | 32.56967 | -116.97082 | 543 ft | 29 kts | 96° |
| 2026-04-29 16:16 | 32.56948 | -116.96892 | 543 ft | 18 kts | 97° |
| 2026-04-29 16:17 | 32.56977 | -116.96809 | 543 ft | 11 kts | 6° |
| 2026-04-29 16:17 | 32.57083 | -116.96801 | 543 ft | 17 kts | 4° |
| 2026-04-29 16:17 | 32.57103 | -116.96799 | 543 ft | 0 kts | 2° |
| 2026-04-29 16:18 | 32.57104 | -116.96799 | 543 ft | 0 kts | 2° |
| 2026-04-29 16:20 | 32.57130 | -116.96797 | 543 ft | 9 kts | 4° |
| 2026-04-29 16:20 | 32.57161 | -116.96814 | 543 ft | 7 kts | 299° |
| 2026-04-29 16:20 | 32.57167 | -116.96837 | 543 ft | 0 kts | 274° |
| 2026-04-29 16:20 | 32.57167 | -116.96838 | 543 ft | 0 kts | 274° |
| 2026-04-29 16:21 | 32.57176 | -116.96955 | 543 ft | 45 kts | 276° |
| 2026-04-29 16:21 | 32.57232 | -116.97607 | 543 ft | 110 kts | 276° |
| 2026-04-29 16:21 | 32.57318 | -116.98640 | 550 ft | 140 kts | 275° |
| 2026-04-29 16:21 | 32.57413 | -116.99828 | 703 ft | 150 kts | 275° |
| 2026-04-29 16:22 | 32.57513 | -117.01093 | 925 ft | 158 kts | 275° |
| 2026-04-29 16:22 | 32.57725 | -117.02393 | 1204 ft | 167 kts | 287° |
| 2026-04-29 16:22 | 32.58328 | -117.03679 | 1421 ft | 189 kts | 304° |
| 2026-04-29 16:22 | 32.59265 | -117.04844 | 1786 ft | 202 kts | 318° |
| 2026-04-29 16:23 | 32.60359 | -117.05877 | 2435 ft | 197 kts | 321° |
| 2026-04-29 16:23 | 32.61411 | -117.06853 | 3129 ft | 193 kts | 322° |
| 2026-04-29 16:23 | 32.62470 | -117.07832 | 3782 ft | 192 kts | 322° |
| 2026-04-29 16:23 | 32.63516 | -117.08804 | 4481 ft | 189 kts | 322° |
| 2026-04-29 16:24 | 32.64545 | -117.09762 | 5166 ft | 186 kts | 321° |
| 2026-04-29 16:24 | 32.65553 | -117.10700 | 5892 ft | 182 kts | 319° |
| 2026-04-29 16:24 | 32.66493 | -117.11660 | 6595 ft | 179 kts | 315° |
| 2026-04-29 16:24 | 32.67477 | -117.12603 | 7191 ft | 181 kts | 317° |
| 2026-04-29 16:25 | 32.68491 | -117.13525 | 7798 ft | 183 kts | 318° |
| 2026-04-29 16:25 | 32.69520 | -117.14412 | 8325 ft | 190 kts | 319° |
| 2026-04-29 16:25 | 32.70627 | -117.15327 | 8811 ft | 196 kts | 321° |
| 2026-04-29 16:25 | 32.71771 | -117.16238 | 9317 ft | 201 kts | 321° |
| 2026-04-29 16:26 | 32.72957 | -117.17134 | 9863 ft | 203 kts | 323° |
| 2026-04-29 16:26 | 32.74156 | -117.18084 | 10234 ft | 213 kts | 320° |
| 2026-04-29 16:26 | 32.75352 | -117.19218 | 10457 ft | 227 kts | 314° |
| 2026-04-29 16:26 | 32.76531 | -117.20550 | 10642 ft | 241 kts | 312° |
| 2026-04-29 16:27 | 32.77556 | -117.22140 | 10717 ft | 251 kts | 297° |
| 2026-04-29 16:27 | 32.77948 | -117.24201 | 10709 ft | 261 kts | 268° |
| 2026-04-29 16:27 | 32.77291 | -117.26192 | 10712 ft | 273 kts | 236° |
| 2026-04-29 16:27 | 32.75764 | -117.27619 | 10697 ft | 286 kts | 214° |
| 2026-04-29 16:28 | 32.74045 | -117.28814 | 10908 ft | 287 kts | 214° |
| 2026-04-29 16:28 | 32.72307 | -117.30076 | 10830 ft | 298 kts | 215° |
| 2026-04-29 16:28 | 32.70504 | -117.31436 | 10427 ft | 315 kts | 216° |
| 2026-04-29 16:28 | 32.68632 | -117.32892 | 10196 ft | 321 kts | 217° |
| 2026-04-29 16:29 | 32.66790 | -117.34355 | 10275 ft | 317 kts | 217° |
| 2026-04-29 16:29 | 32.64966 | -117.35825 | 10293 ft | 316 kts | 217° |
| 2026-04-29 16:29 | 32.63156 | -117.37303 | 10298 ft | 315 kts | 218° |
| 2026-04-29 16:29 | 32.61367 | -117.38780 | 10438 ft | 310 kts | 218° |
| 2026-04-29 16:30 | 32.59614 | -117.40236 | 10576 ft | 307 kts | 218° |
| 2026-04-29 16:30 | 32.57870 | -117.41694 | 10637 ft | 307 kts | 218° |
| 2026-04-29 16:30 | 32.56126 | -117.43163 | 10700 ft | 306 kts | 218° |
| 2026-04-29 16:30 | 32.54401 | -117.44619 | 10836 ft | 304 kts | 218° |
| 2026-04-29 16:31 | 32.53236 | -117.45599 | 10881 ft | 304 kts | 218° |
| 2026-04-29 16:31 | 32.51522 | -117.47007 | 11008 ft | 302 kts | 217° |
| 2026-04-29 16:31 | 32.49736 | -117.48336 | 11098 ft | 303 kts | 214° |
| 2026-04-29 16:31 | 32.47891 | -117.49589 | 11036 ft | 309 kts | 212° |
| 2026-04-29 16:32 | 32.45977 | -117.50811 | 10872 ft | 316 kts | 212° |
| 2026-04-29 16:32 | 32.43932 | -117.51843 | 10758 ft | 323 kts | 198° |
| 2026-04-29 16:32 | 32.41696 | -117.51886 | 10864 ft | 327 kts | 171° |
| 2026-04-29 16:32 | 32.39698 | -117.50563 | 10815 ft | 336 kts | 139° |
| 2026-04-29 16:33 | 32.38586 | -117.45310 | 10403 ft | 348 kts | 76° |
| 2026-04-29 16:33 | 32.39191 | -117.42658 | 11181 ft | 321 kts | 73° |
| 2026-04-29 16:33 | 32.39769 | -117.40159 | 11632 ft | 315 kts | 73° |
| 2026-04-29 16:34 | 32.40363 | -117.37616 | 11597 ft | 325 kts | 73° |
| 2026-04-29 16:34 | 32.40981 | -117.34993 | 11443 ft | 336 kts | 73° |
| 2026-04-29 16:34 | 32.41617 | -117.32315 | 11395 ft | 340 kts | 73° |
| 2026-04-29 16:34 | 32.42258 | -117.29632 | 11308 ft | 345 kts | 73° |
| 2026-04-29 16:35 | 32.42915 | -117.26890 | 11186 ft | 350 kts | 73° |
| 2026-04-29 16:35 | 32.43589 | -117.24093 | 11070 ft | 353 kts | 73° |
| 2026-04-29 16:35 | 32.44261 | -117.21303 | 11092 ft | 351 kts | 73° |
| 2026-04-29 16:35 | 32.44932 | -117.18522 | 11098 ft | 351 kts | 73° |
| 2026-04-29 16:36 | 32.45602 | -117.15748 | 11099 ft | 350 kts | 73° |
| 2026-04-29 16:36 | 32.46271 | -117.12976 | 11100 ft | 350 kts | 73° |
| 2026-04-29 16:36 | 32.46938 | -117.10209 | 11100 ft | 350 kts | 73° |
| 2026-04-29 16:36 | 32.47605 | -117.07435 | 11100 ft | 350 kts | 73° |
| 2026-04-29 16:37 | 32.48272 | -117.04661 | 11100 ft | 349 kts | 73° |
| 2026-04-29 16:37 | 32.48937 | -117.01891 | 11100 ft | 349 kts | 73° |
| 2026-04-29 16:37 | 32.49599 | -116.99122 | 11100 ft | 349 kts | 73° |
| 2026-04-29 16:37 | 32.50038 | -116.97288 | 11100 ft | 349 kts | 73° |
| 2026-04-29 16:38 | 32.50920 | -116.93585 | 11100 ft | 349 kts | 73° |
| 2026-04-29 16:38 | 32.51570 | -116.90850 | 11100 ft | 349 kts | 73° |
| 2026-04-29 16:38 | 32.52227 | -116.88075 | 11100 ft | 349 kts | 73° |
| 2026-04-29 16:38 | 32.52882 | -116.85305 | 11100 ft | 349 kts | 73° |
| 2026-04-29 16:39 | 32.53538 | -116.82520 | 11100 ft | 349 kts | 73° |
| 2026-04-29 16:39 | 32.54190 | -116.79743 | 11100 ft | 349 kts | 73° |
| 2026-04-29 16:39 | 32.54840 | -116.76967 | 11100 ft | 349 kts | 73° |
| 2026-04-29 16:39 | 32.55489 | -116.74186 | 11100 ft | 349 kts | 73° |
| 2026-04-29 16:40 | 32.56135 | -116.71413 | 11100 ft | 349 kts | 73° |
| 2026-04-29 16:40 | 32.56772 | -116.68665 | 11100 ft | 349 kts | 73° |
| 2026-04-29 16:40 | 32.57412 | -116.65899 | 11100 ft | 350 kts | 73° |
| 2026-04-29 16:40 | 32.58055 | -116.63107 | 11100 ft | 350 kts | 73° |
| 2026-04-29 16:41 | 32.58684 | -116.60307 | 11112 ft | 355 kts | 75° |
| 2026-04-29 16:41 | 32.59258 | -116.57463 | 11095 ft | 354 kts | 76° |
| 2026-04-29 16:41 | 32.59867 | -116.54644 | 11098 ft | 352 kts | 74° |
| 2026-04-29 16:41 | 32.60550 | -116.51860 | 11100 ft | 351 kts | 72° |
| 2026-04-29 16:42 | 32.61303 | -116.49109 | 11100 ft | 350 kts | 70° |
| 2026-04-29 16:42 | 32.62116 | -116.46381 | 11100 ft | 350 kts | 69° |
| 2026-04-29 16:42 | 32.62974 | -116.43686 | 11100 ft | 349 kts | 68° |
| 2026-04-29 16:42 | 32.63871 | -116.41007 | 11100 ft | 349 kts | 66° |
| 2026-04-29 16:43 | 32.64796 | -116.38346 | 11100 ft | 349 kts | 66° |
| 2026-04-29 16:43 | 32.65747 | -116.35694 | 11100 ft | 349 kts | 65° |
| 2026-04-29 16:43 | 32.66715 | -116.33058 | 11100 ft | 348 kts | 65° |
| 2026-04-29 16:43 | 32.67697 | -116.30434 | 11100 ft | 348 kts | 64° |
| 2026-04-29 16:44 | 32.68692 | -116.27811 | 11100 ft | 348 kts | 64° |
| 2026-04-29 16:44 | 32.69696 | -116.25194 | 11109 ft | 348 kts | 64° |
| 2026-04-29 16:44 | 32.70646 | -116.22505 | 11083 ft | 354 kts | 68° |
| 2026-04-29 16:44 | 32.71446 | -116.19750 | 11100 ft | 352 kts | 70° |
| 2026-04-29 16:45 | 32.72200 | -116.16975 | 11100 ft | 352 kts | 71° |
| 2026-04-29 16:45 | 32.72926 | -116.14245 | 11100 ft | 351 kts | 71° |
| 2026-04-29 16:45 | 32.73654 | -116.11480 | 11100 ft | 351 kts | 71° |
| 2026-04-29 16:45 | 32.74378 | -116.08717 | 11100 ft | 350 kts | 71° |
| 2026-04-29 16:46 | 32.75099 | -116.05951 | 11100 ft | 350 kts | 71° |
| 2026-04-29 16:46 | 32.75817 | -116.03187 | 11100 ft | 350 kts | 72° |
| 2026-04-29 16:46 | 32.76531 | -116.00426 | 11100 ft | 350 kts | 72° |
| 2026-04-29 16:46 | 32.77242 | -115.97664 | 11100 ft | 350 kts | 72° |
| 2026-04-29 16:47 | 32.77953 | -115.94894 | 11100 ft | 350 kts | 72° |
| 2026-04-29 16:47 | 32.78660 | -115.92130 | 11100 ft | 349 kts | 72° |
| 2026-04-29 16:47 | 32.79366 | -115.89361 | 11100 ft | 349 kts | 72° |
| 2026-04-29 16:47 | 32.80068 | -115.86598 | 11100 ft | 349 kts | 72° |
| 2026-04-29 16:48 | 32.80768 | -115.83835 | 11100 ft | 349 kts | 72° |
| 2026-04-29 16:48 | 32.81467 | -115.81065 | 11100 ft | 349 kts | 72° |
| 2026-04-29 16:48 | 32.82162 | -115.78303 | 11100 ft | 349 kts | 72° |
| 2026-04-29 16:48 | 32.82858 | -115.75528 | 11100 ft | 349 kts | 72° |
| 2026-04-29 16:49 | 32.83549 | -115.72761 | 11100 ft | 349 kts | 72° |
| 2026-04-29 16:49 | 32.84232 | -115.70023 | 11100 ft | 349 kts | 72° |
| 2026-04-29 16:49 | 32.84922 | -115.67245 | 11100 ft | 349 kts | 72° |
| 2026-04-29 16:49 | 32.85609 | -115.64470 | 11100 ft | 349 kts | 72° |
| 2026-04-29 16:50 | 32.86294 | -115.61696 | 11100 ft | 349 kts | 72° |
| 2026-04-29 16:50 | 32.86977 | -115.58921 | 11100 ft | 349 kts | 72° |
| 2026-04-29 16:50 | 32.87659 | -115.56144 | 11100 ft | 349 kts | 72° |
| 2026-04-29 16:50 | 32.88338 | -115.53366 | 11100 ft | 349 kts | 72° |
| 2026-04-29 16:51 | 32.89016 | -115.50585 | 11100 ft | 349 kts | 73° |
| 2026-04-29 16:51 | 32.89691 | -115.47809 | 11100 ft | 349 kts | 73° |
| 2026-04-29 16:51 | 32.90364 | -115.45031 | 11100 ft | 349 kts | 73° |
| 2026-04-29 16:51 | 32.91036 | -115.42250 | 11100 ft | 349 kts | 73° |
| 2026-04-29 16:52 | 32.91707 | -115.39463 | 11100 ft | 350 kts | 73° |
| 2026-04-29 16:52 | 32.92374 | -115.36685 | 11100 ft | 350 kts | 73° |
| 2026-04-29 16:52 | 32.93041 | -115.33898 | 11100 ft | 350 kts | 73° |
| 2026-04-29 16:52 | 32.93674 | -115.31248 | 11100 ft | 350 kts | 73° |
| 2026-04-29 16:53 | 32.94359 | -115.28365 | 11100 ft | 350 kts | 73° |
| 2026-04-29 16:53 | 32.95020 | -115.25579 | 11100 ft | 350 kts | 73° |
| 2026-04-29 16:53 | 32.95679 | -115.22792 | 11100 ft | 350 kts | 73° |
| 2026-04-29 16:53 | 32.96335 | -115.20008 | 11100 ft | 350 kts | 73° |
| 2026-04-29 16:54 | 32.96989 | -115.17223 | 11100 ft | 350 kts | 73° |
| 2026-04-29 16:54 | 32.97643 | -115.14429 | 11100 ft | 350 kts | 73° |
| 2026-04-29 16:54 | 32.98295 | -115.11635 | 11100 ft | 350 kts | 73° |
| 2026-04-29 16:54 | 32.98944 | -115.08845 | 11100 ft | 350 kts | 73° |
| 2026-04-29 16:55 | 32.99591 | -115.06053 | 11100 ft | 350 kts | 73° |
| 2026-04-29 16:55 | 33.00235 | -115.03265 | 11100 ft | 350 kts | 73° |
| 2026-04-29 16:55 | 33.00881 | -115.00462 | 11100 ft | 350 kts | 73° |
| 2026-04-29 16:55 | 33.01524 | -114.97664 | 11100 ft | 350 kts | 73° |
| 2026-04-29 16:56 | 33.02164 | -114.94866 | 11100 ft | 350 kts | 73° |
| 2026-04-29 16:56 | 33.02794 | -114.92104 | 11100 ft | 350 kts | 74° |
| 2026-04-29 16:56 | 33.03431 | -114.89304 | 11100 ft | 350 kts | 74° |
| 2026-04-29 16:56 | 33.04066 | -114.86501 | 11100 ft | 350 kts | 74° |
| 2026-04-29 16:57 | 33.04703 | -114.83708 | 11124 ft | 349 kts | 73° |
| 2026-04-29 16:57 | 33.05372 | -114.80921 | 11100 ft | 350 kts | 72° |
| 2026-04-29 16:57 | 33.06071 | -114.78161 | 11100 ft | 349 kts | 72° |
| 2026-04-29 16:57 | 33.06796 | -114.75397 | 11100 ft | 349 kts | 71° |
| 2026-04-29 16:58 | 33.07540 | -114.72640 | 11100 ft | 349 kts | 71° |
| 2026-04-29 16:58 | 33.08297 | -114.69887 | 11100 ft | 349 kts | 70° |
| 2026-04-29 16:58 | 33.09066 | -114.67136 | 11100 ft | 349 kts | 70° |
| 2026-04-29 16:58 | 33.09842 | -114.64394 | 11100 ft | 349 kts | 70° |
| 2026-04-29 16:59 | 33.10625 | -114.61651 | 11100 ft | 349 kts | 70° |
| 2026-04-29 16:59 | 33.11413 | -114.58908 | 11100 ft | 349 kts | 70° |
| 2026-04-29 16:59 | 33.12205 | -114.56168 | 11100 ft | 349 kts | 70° |
| 2026-04-29 16:59 | 33.12998 | -114.53432 | 11100 ft | 349 kts | 70° |
| 2026-04-29 17:00 | 33.13795 | -114.50692 | 11100 ft | 349 kts | 70° |
| 2026-04-29 17:00 | 33.14590 | -114.47959 | 11100 ft | 349 kts | 70° |
| 2026-04-29 17:00 | 33.15389 | -114.45215 | 11100 ft | 349 kts | 70° |
| 2026-04-29 17:00 | 33.16178 | -114.42505 | 11100 ft | 349 kts | 70° |
| 2026-04-29 17:01 | 33.16975 | -114.39764 | 11100 ft | 349 kts | 70° |
| 2026-04-29 17:01 | 33.17772 | -114.37024 | 11100 ft | 349 kts | 70° |
| 2026-04-29 17:01 | 33.18568 | -114.34281 | 11100 ft | 349 kts | 70° |
| 2026-04-29 17:01 | 33.19349 | -114.31585 | 11100 ft | 349 kts | 70° |
| 2026-04-29 17:02 | 33.20159 | -114.28788 | 11100 ft | 349 kts | 70° |
| 2026-04-29 17:02 | 33.20949 | -114.26051 | 11100 ft | 349 kts | 70° |
| 2026-04-29 17:02 | 33.21741 | -114.23303 | 11100 ft | 349 kts | 70° |
| 2026-04-29 17:02 | 33.22528 | -114.20565 | 11100 ft | 349 kts | 70° |
| 2026-04-29 17:03 | 33.23317 | -114.17817 | 11100 ft | 349 kts | 70° |
| 2026-04-29 17:03 | 33.24104 | -114.15064 | 11100 ft | 349 kts | 70° |
| 2026-04-29 17:03 | 33.24879 | -114.12350 | 11100 ft | 349 kts | 70° |
| 2026-04-29 17:03 | 33.25662 | -114.09602 | 11100 ft | 350 kts | 70° |
| 2026-04-29 17:04 | 33.26443 | -114.06850 | 11100 ft | 350 kts | 70° |
| 2026-04-29 17:04 | 33.27223 | -114.04098 | 11100 ft | 350 kts | 70° |
| 2026-04-29 17:04 | 33.28001 | -114.01344 | 11100 ft | 350 kts | 70° |
| 2026-04-29 17:04 | 33.28778 | -113.98588 | 11100 ft | 350 kts | 70° |
| 2026-04-29 17:05 | 33.29551 | -113.95835 | 11100 ft | 350 kts | 70° |
| 2026-04-29 17:05 | 33.30324 | -113.93077 | 11100 ft | 350 kts | 70° |
| 2026-04-29 17:05 | 33.31091 | -113.90334 | 11100 ft | 350 kts | 70° |
| 2026-04-29 17:05 | 33.31865 | -113.87558 | 11100 ft | 350 kts | 70° |
| 2026-04-29 17:06 | 33.32631 | -113.84802 | 11100 ft | 350 kts | 70° |
| 2026-04-29 17:06 | 33.33397 | -113.82039 | 11100 ft | 350 kts | 70° |
| 2026-04-29 17:06 | 33.34160 | -113.79276 | 11100 ft | 350 kts | 70° |
| 2026-04-29 17:06 | 33.34921 | -113.76516 | 11100 ft | 350 kts | 70° |
| 2026-04-29 17:07 | 33.35681 | -113.73752 | 11100 ft | 350 kts | 70° |
| 2026-04-29 17:07 | 33.36184 | -113.71919 | 11100 ft | 350 kts | 71° |
| 2026-04-29 17:07 | 33.37195 | -113.68221 | 11100 ft | 350 kts | 71° |
| 2026-04-29 17:07 | 33.37949 | -113.65458 | 11100 ft | 350 kts | 71° |
| 2026-04-29 17:08 | 33.38701 | -113.62692 | 11100 ft | 350 kts | 71° |
| 2026-04-29 17:08 | 33.39451 | -113.59923 | 11100 ft | 350 kts | 71° |
| 2026-04-29 17:08 | 33.40201 | -113.57149 | 11100 ft | 350 kts | 71° |
| 2026-04-29 17:08 | 33.40947 | -113.54382 | 11100 ft | 350 kts | 71° |
| 2026-04-29 17:09 | 33.41682 | -113.51648 | 11100 ft | 350 kts | 71° |
| 2026-04-29 17:09 | 33.42425 | -113.48877 | 11100 ft | 350 kts | 71° |
| 2026-04-29 17:09 | 33.43167 | -113.46100 | 11100 ft | 350 kts | 71° |
| 2026-04-29 17:09 | 33.43906 | -113.43328 | 11100 ft | 350 kts | 71° |
| 2026-04-29 17:10 | 33.44645 | -113.40550 | 11100 ft | 350 kts | 71° |
| 2026-04-29 17:10 | 33.45377 | -113.37788 | 11100 ft | 350 kts | 71° |
| 2026-04-29 17:10 | 33.46112 | -113.35004 | 11100 ft | 350 kts | 71° |
| 2026-04-29 17:10 | 33.46847 | -113.32215 | 11100 ft | 350 kts | 71° |
| 2026-04-29 17:11 | 33.47577 | -113.29438 | 11100 ft | 350 kts | 71° |
| 2026-04-29 17:11 | 33.48306 | -113.26657 | 11100 ft | 350 kts | 71° |
| 2026-04-29 17:11 | 33.49031 | -113.23882 | 11100 ft | 350 kts | 71° |
| 2026-04-29 17:11 | 33.49747 | -113.21133 | 11100 ft | 350 kts | 71° |
| 2026-04-29 17:12 | 33.50479 | -113.18312 | 11100 ft | 350 kts | 71° |
| 2026-04-29 17:12 | 33.51200 | -113.15531 | 11100 ft | 350 kts | 71° |
| 2026-04-29 17:12 | 33.51911 | -113.12777 | 11100 ft | 350 kts | 72° |
| 2026-04-29 17:12 | 33.52153 | -113.11837 | 11100 ft | 350 kts | 72° |
| 2026-04-29 17:13 | 33.53343 | -113.07208 | 11100 ft | 350 kts | 72° |
| 2026-04-29 17:13 | 33.54058 | -113.04413 | 11100 ft | 350 kts | 72° |
| 2026-04-29 17:13 | 33.54770 | -113.01626 | 11100 ft | 350 kts | 72° |
| 2026-04-29 17:13 | 33.55479 | -112.98840 | 11100 ft | 350 kts | 72° |
| 2026-04-29 17:14 | 33.56188 | -112.96043 | 11100 ft | 350 kts | 72° |
| 2026-04-29 17:14 | 33.56894 | -112.93255 | 11100 ft | 350 kts | 72° |
| 2026-04-29 17:14 | 33.57599 | -112.90459 | 11100 ft | 350 kts | 72° |
| 2026-04-29 17:14 | 33.58303 | -112.87663 | 11100 ft | 350 kts | 72° |
| 2026-04-29 17:15 | 33.59251 | -112.85009 | 11058 ft | 345 kts | 52° |
| 2026-04-29 17:15 | 33.61064 | -112.83221 | 11102 ft | 334 kts | 25° |
| 2026-04-29 17:15 | 33.63255 | -112.82510 | 11209 ft | 322 kts | 1° |
| 2026-04-29 17:15 | 33.65441 | -112.82890 | 11006 ft | 319 kts | 338° |
| 2026-04-29 17:16 | 33.66754 | -112.83704 | 10784 ft | 321 kts | 324° |
| 2026-04-29 17:16 | 33.68359 | -112.85387 | 11608 ft | 282 kts | 313° |
| 2026-04-29 17:16 | 33.69671 | -112.86973 | 12563 ft | 262 kts | 310° |
| 2026-04-29 17:16 | 33.70845 | -112.88541 | 13394 ft | 241 kts | 307° |
| 2026-04-29 17:17 | 33.71880 | -112.90057 | 14170 ft | 230 kts | 305° |
| 2026-04-29 17:17 | 33.72853 | -112.91603 | 14383 ft | 244 kts | 303° |
| 2026-04-29 17:17 | 33.73474 | -112.92719 | 14330 ft | 257 kts | 301° |
| 2026-04-29 17:17 | 33.74467 | -112.94584 | 14312 ft | 272 kts | 300° |
| 2026-04-29 17:18 | 33.75489 | -112.96561 | 14305 ft | 283 kts | 299° |
| 2026-04-29 17:18 | 33.76515 | -112.98590 | 14303 ft | 290 kts | 299° |
| 2026-04-29 17:18 | 33.77562 | -113.00696 | 14302 ft | 296 kts | 298° |
| 2026-04-29 17:18 | 33.78357 | -113.02981 | 14294 ft | 298 kts | 284° |
| 2026-04-29 17:19 | 33.78558 | -113.05465 | 14303 ft | 300 kts | 269° |
| 2026-04-29 17:19 | 33.78272 | -113.07956 | 14304 ft | 303 kts | 258° |
| 2026-04-29 17:19 | 33.77600 | -113.10372 | 14303 ft | 306 kts | 249° |
| 2026-04-29 17:19 | 33.76632 | -113.12667 | 14302 ft | 309 kts | 242° |
| 2026-04-29 17:20 | 33.75437 | -113.14832 | 14302 ft | 312 kts | 236° |
| 2026-04-29 17:20 | 33.74072 | -113.16867 | 14301 ft | 314 kts | 232° |
| 2026-04-29 17:20 | 33.72575 | -113.18788 | 14301 ft | 315 kts | 228° |
| 2026-04-29 17:20 | 33.70981 | -113.20606 | 14301 ft | 317 kts | 225° |
| 2026-04-29 17:21 | 33.69313 | -113.22337 | 14301 ft | 318 kts | 223° |
| 2026-04-29 17:21 | 33.67585 | -113.23997 | 14300 ft | 319 kts | 221° |
| 2026-04-29 17:21 | 33.65832 | -113.25580 | 14300 ft | 320 kts | 219° |
| 2026-04-29 17:21 | 33.64001 | -113.27151 | 14300 ft | 320 kts | 218° |
| 2026-04-29 17:22 | 33.62187 | -113.28645 | 14300 ft | 321 kts | 217° |
| 2026-04-29 17:22 | 33.60326 | -113.30128 | 14300 ft | 321 kts | 217° |
| 2026-04-29 17:22 | 33.58450 | -113.31583 | 14300 ft | 321 kts | 216° |
| 2026-04-29 17:22 | 33.56562 | -113.33017 | 14300 ft | 321 kts | 215° |
| 2026-04-29 17:23 | 33.54692 | -113.34489 | 14297 ft | 320 kts | 219° |
| 2026-04-29 17:23 | 33.53011 | -113.36219 | 14303 ft | 318 kts | 225° |
| 2026-04-29 17:23 | 33.51372 | -113.38002 | 14301 ft | 318 kts | 225° |
| 2026-04-29 17:23 | 33.49733 | -113.39788 | 14300 ft | 318 kts | 225° |
| 2026-04-29 17:24 | 33.48097 | -113.41573 | 14300 ft | 318 kts | 225° |
| 2026-04-29 17:24 | 33.46460 | -113.43362 | 14300 ft | 318 kts | 225° |
| 2026-04-29 17:24 | 33.44825 | -113.45151 | 14300 ft | 318 kts | 225° |
| 2026-04-29 17:24 | 33.43191 | -113.46943 | 14300 ft | 318 kts | 225° |
| 2026-04-29 17:25 | 33.41560 | -113.48734 | 14300 ft | 319 kts | 225° |
| 2026-04-29 17:25 | 33.39930 | -113.50527 | 14300 ft | 319 kts | 225° |
| 2026-04-29 17:25 | 33.38299 | -113.52325 | 14300 ft | 319 kts | 225° |
| 2026-04-29 17:25 | 33.36668 | -113.54124 | 14300 ft | 319 kts | 225° |
| 2026-04-29 17:26 | 33.35044 | -113.55920 | 14300 ft | 319 kts | 225° |
| 2026-04-29 17:26 | 33.33415 | -113.57724 | 14300 ft | 319 kts | 226° |
| 2026-04-29 17:26 | 33.31790 | -113.59534 | 14299 ft | 318 kts | 226° |
| 2026-04-29 17:26 | 33.30329 | -113.61511 | 14300 ft | 316 kts | 234° |
| 2026-04-29 17:27 | 33.28996 | -113.63600 | 14302 ft | 316 kts | 235° |
| 2026-04-29 17:27 | 33.27664 | -113.65686 | 14300 ft | 316 kts | 235° |
| 2026-04-29 17:27 | 33.26346 | -113.67753 | 14300 ft | 316 kts | 235° |
| 2026-04-29 17:27 | 33.25022 | -113.69831 | 14300 ft | 316 kts | 235° |
| 2026-04-29 17:28 | 33.23684 | -113.71934 | 14301 ft | 313 kts | 235° |
| 2026-04-29 17:28 | 33.22390 | -113.73964 | 14282 ft | 301 kts | 235° |
| 2026-04-29 17:28 | 33.21134 | -113.75935 | 14102 ft | 298 kts | 235° |
| 2026-04-29 17:28 | 33.19882 | -113.77906 | 13857 ft | 297 kts | 235° |
| 2026-04-29 17:29 | 33.18657 | -113.79877 | 13623 ft | 292 kts | 236° |
| 2026-04-29 17:29 | 33.17503 | -113.81785 | 13468 ft | 277 kts | 237° |
| 2026-04-29 17:29 | 33.16482 | -113.83693 | 13047 ft | 271 kts | 244° |
| 2026-04-29 17:29 | 33.15639 | -113.85705 | 12580 ft | 270 kts | 245° |
| 2026-04-29 17:30 | 33.14806 | -113.87737 | 11950 ft | 275 kts | 246° |
| 2026-04-29 17:30 | 33.13963 | -113.89816 | 11214 ft | 282 kts | 246° |
| 2026-04-29 17:30 | 33.13129 | -113.91892 | 10700 ft | 280 kts | 246° |
| 2026-04-29 17:30 | 33.12294 | -113.93975 | 10196 ft | 277 kts | 246° |
| 2026-04-29 17:31 | 33.11464 | -113.96053 | 9632 ft | 277 kts | 246° |
| 2026-04-29 17:31 | 33.10638 | -113.98130 | 9068 ft | 277 kts | 246° |
| 2026-04-29 17:31 | 33.09812 | -114.00207 | 8533 ft | 276 kts | 246° |
| 2026-04-29 17:31 | 33.08992 | -114.02273 | 7977 ft | 275 kts | 246° |
| 2026-04-29 17:32 | 33.08174 | -114.04339 | 7411 ft | 275 kts | 246° |
| 2026-04-29 17:32 | 33.07373 | -114.06363 | 7119 ft | 262 kts | 246° |
| 2026-04-29 17:32 | 33.06607 | -114.08287 | 6864 ft | 253 kts | 246° |
| 2026-04-29 17:32 | 33.05845 | -114.10204 | 6613 ft | 255 kts | 246° |
| 2026-04-29 17:33 | 33.05093 | -114.12095 | 6684 ft | 252 kts | 246° |
| 2026-04-29 17:33 | 33.04268 | -114.13950 | 6693 ft | 255 kts | 240° |
| 2026-04-29 17:33 | 33.03193 | -114.15643 | 6706 ft | 257 kts | 234° |
| 2026-04-29 17:33 | 33.02079 | -114.17328 | 6701 ft | 259 kts | 234° |
| 2026-04-29 17:34 | 33.00960 | -114.19020 | 6634 ft | 257 kts | 234° |
| 2026-04-29 17:34 | 32.99894 | -114.20623 | 6519 ft | 244 kts | 234° |
| 2026-04-29 17:34 | 32.98855 | -114.22176 | 6340 ft | 236 kts | 234° |
| 2026-04-29 17:34 | 32.97848 | -114.23670 | 6175 ft | 228 kts | 234° |
| 2026-04-29 17:35 | 32.96347 | -114.26237 | 5610 ft | 226 kts | 248° |
| 2026-04-29 17:35 | 32.95851 | -114.28745 | 4714 ft | 244 kts | 263° |
| 2026-04-29 17:35 | 32.95679 | -114.30657 | 4172 ft | 218 kts | 266° |
| 2026-04-29 17:36 | 32.95577 | -114.32430 | 3673 ft | 208 kts | 267° |
| 2026-04-29 17:36 | 32.95524 | -114.34077 | 3184 ft | 183 kts | 268° |
| 2026-04-29 17:36 | 32.95396 | -114.35389 | 3021 ft | 142 kts | 256° |
| 2026-04-29 17:36 | 32.94811 | -114.36355 | 2760 ft | 159 kts | 226° |
| 2026-04-29 17:37 | 32.93806 | -114.37051 | 2512 ft | 171 kts | 206° |
| 2026-04-29 17:37 | 32.92727 | -114.37595 | 2193 ft | 165 kts | 201° |
| 2026-04-29 17:37 | 32.91661 | -114.38047 | 1766 ft | 162 kts | 198° |
| 2026-04-29 17:37 | 32.90586 | -114.38451 | 1265 ft | 163 kts | 195° |
| 2026-04-29 17:38 | 32.89513 | -114.38794 | 935 ft | 152 kts | 192° |
| 2026-04-29 17:38 | 32.88519 | -114.39075 | 673 ft | 142 kts | 191° |
| 2026-04-29 17:38 | 32.87582 | -114.39278 | 469 ft | 134 kts | 190° |
| 2026-04-29 17:38 | 32.86792 | -114.39449 | 439 ft | 79 kts | 190° |
| 2026-04-29 17:39 | 32.86573 | -114.39496 | 439 ft | 0 kts | 189° |
| 2026-04-29 17:39 | 32.86550 | -114.39500 | 439 ft | 9 kts | 189° |
| 2026-04-29 17:39 | 32.86502 | -114.39510 | 439 ft | 3 kts | 189° |
| 2026-04-29 17:39 | 32.86210 | -114.39571 | 439 ft | 82 kts | 190° |
| 2026-04-29 17:40 | 32.85450 | -114.39738 | 480 ft | 130 kts | 190° |
| 2026-04-29 17:40 | 32.84483 | -114.39954 | 599 ft | 152 kts | 191° |
| 2026-04-29 17:40 | 32.83493 | -114.40530 | 706 ft | 166 kts | 212° |
| 2026-04-29 17:40 | 32.82615 | -114.41435 | 977 ft | 168 kts | 221° |
| 2026-04-29 17:41 | 32.81735 | -114.42391 | 1190 ft | 175 kts | 223° |
| 2026-04-29 17:41 | 32.80845 | -114.43357 | 1361 ft | 166 kts | 223° |
| 2026-04-29 17:41 | 32.80032 | -114.44278 | 1416 ft | 158 kts | 223° |
| 2026-04-29 17:41 | 32.79225 | -114.45151 | 1401 ft | 156 kts | 222° |
| 2026-04-29 17:42 | 32.78436 | -114.46014 | 1431 ft | 154 kts | 223° |
| 2026-04-29 17:42 | 32.77642 | -114.46912 | 1421 ft | 160 kts | 224° |
| 2026-04-29 17:42 | 32.76837 | -114.47832 | 1468 ft | 161 kts | 223° |
| 2026-04-29 17:42 | 32.76022 | -114.48753 | 1417 ft | 168 kts | 223° |
| 2026-04-29 17:43 | 32.75198 | -114.49754 | 1404 ft | 169 kts | 226° |
| 2026-04-29 17:43 | 32.74364 | -114.50727 | 1392 ft | 166 kts | 224° |
| 2026-04-29 17:43 | 32.73520 | -114.51667 | 1293 ft | 167 kts | 223° |
| 2026-04-29 17:43 | 32.72690 | -114.52602 | 1266 ft | 162 kts | 223° |
| 2026-04-29 17:44 | 32.71883 | -114.53522 | 1216 ft | 161 kts | 224° |
| 2026-04-29 17:44 | 32.71062 | -114.54456 | 1074 ft | 165 kts | 224° |
| 2026-04-29 17:44 | 32.70227 | -114.55412 | 916 ft | 168 kts | 224° |
| 2026-04-29 17:44 | 32.69394 | -114.56378 | 801 ft | 167 kts | 224° |
| 2026-04-29 17:45 | 32.68569 | -114.57335 | 673 ft | 162 kts | 224° |
| 2026-04-29 17:45 | 32.67822 | -114.58198 | 550 ft | 139 kts | 224° |
| 2026-04-29 17:45 | 32.67157 | -114.58959 | 437 ft | 127 kts | 224° |
| 2026-04-29 17:45 | 32.66519 | -114.59691 | 287 ft | 131 kts | 224° |
| 2026-04-29 17:46 | 32.65870 | -114.60434 | 234 ft | 126 kts | 224° |
| 2026-04-29 17:46 | 32.65419 | -114.60952 | 233 ft | 56 kts | 224° |
| 2026-04-29 17:46 | 32.65238 | -114.61124 | 233 ft | 13 kts | 165° |
| 2026-04-29 17:46 | 32.65224 | -114.61021 | 233 ft | 22 kts | 87° |
| 2026-04-29 17:47 | 32.65225 | -114.60817 | 233 ft | 25 kts | 89° |
| 2026-04-29 17:47 | 32.65221 | -114.60618 | 233 ft | 24 kts | 86° |
| 2026-04-29 17:47 | 32.65230 | -114.60419 | 233 ft | 24 kts | 89° |
| 2026-04-29 17:47 | 32.65246 | -114.60222 | 233 ft | 24 kts | 72° |
| 2026-04-29 17:48 | 32.65309 | -114.60043 | 233 ft | 24 kts | 65° |
| 2026-04-29 17:48 | 32.65380 | -114.59862 | 233 ft | 24 kts | 65° |
| 2026-04-29 17:48 | 32.65452 | -114.59678 | 233 ft | 25 kts | 65° |
| 2026-04-29 17:48 | 32.65503 | -114.59596 | 233 ft | 0 kts | 358° |
| 2026-04-29 17:49 | 32.65504 | -114.59596 | 233 ft | 0 kts | 358° |
| 2026-04-29 17:50 | 32.65504 | -114.59597 | 233 ft | 0 kts | 358° |